sensor_id;sensor_type;location;lat;lon;timestamp;P1;durP1;ratioP1;P2;durP2;ratioP2
85726;SDS011;76171;45.484;-73.496;2024-03-06T00:02:11;1.17;;;0.70;;
85726;SDS011;76171;45.484;-73.496;2024-03-06T00:04:37;1.23;;;0.90;;
85726;SDS011;76171;45.484;-73.496;2024-03-06T00:07:03;2.35;;;1.17;;
85726;SDS011;76171;45.484;-73.496;2024-03-06T00:09:29;1.48;;;0.70;;
85726;SDS011;76171;45.484;-73.496;2024-03-06T00:11:56;1.60;;;0.50;;
85726;SDS011;76171;45.484;-73.496;2024-03-06T00:14:23;1.75;;;0.70;;
85726;SDS011;76171;45.484;-73.496;2024-03-06T00:16:49;1.40;;;0.82;;
85726;SDS011;76171;45.484;-73.496;2024-03-06T00:19:20;1.45;;;0.70;;
85726;SDS011;76171;45.484;-73.496;2024-03-06T00:21:47;1.38;;;0.60;;
85726;SDS011;76171;45.484;-73.496;2024-03-06T00:24:13;1.23;;;0.63;;
85726;SDS011;76171;45.484;-73.496;2024-03-06T00:26:40;1.27;;;0.65;;
85726;SDS011;76171;45.484;-73.496;2024-03-06T00:29:09;0.75;;;0.40;;
85726;SDS011;76171;45.484;-73.496;2024-03-06T00:31:36;1.92;;;0.60;;
85726;SDS011;76171;45.484;-73.496;2024-03-06T00:34:02;0.88;;;0.50;;
85726;SDS011;76171;45.484;-73.496;2024-03-06T00:36:28;1.00;;;0.65;;
85726;SDS011;76171;45.484;-73.496;2024-03-06T00:38:54;1.15;;;0.60;;
85726;SDS011;76171;45.484;-73.496;2024-03-06T00:41:22;1.02;;;0.52;;
85726;SDS011;76171;45.484;-73.496;2024-03-06T00:43:48;1.20;;;0.60;;
85726;SDS011;76171;45.484;-73.496;2024-03-06T00:46:14;1.00;;;0.60;;
85726;SDS011;76171;45.484;-73.496;2024-03-06T00:48:40;1.48;;;0.90;;
85726;SDS011;76171;45.484;-73.496;2024-03-06T00:51:07;1.10;;;0.88;;
85726;SDS011;76171;45.484;-73.496;2024-03-06T00:53:34;1.00;;;0.65;;
85726;SDS011;76171;45.484;-73.496;2024-03-06T00:56:00;0.98;;;0.52;;
85726;SDS011;76171;45.484;-73.496;2024-03-06T00:58:27;1.65;;;0.60;;
85726;SDS011;76171;45.484;-73.496;2024-03-06T01:00:53;1.05;;;0.60;;
85726;SDS011;76171;45.484;-73.496;2024-03-06T01:03:19;0.65;;;0.60;;
85726;SDS011;76171;45.484;-73.496;2024-03-06T01:05:45;0.85;;;0.63;;
85726;SDS011;76171;45.484;-73.496;2024-03-06T01:08:11;0.90;;;0.70;;
85726;SDS011;76171;45.484;-73.496;2024-03-06T01:10:37;1.13;;;0.60;;
85726;SDS011;76171;45.484;-73.496;2024-03-06T01:13:03;1.63;;;0.52;;
85726;SDS011;76171;45.484;-73.496;2024-03-06T01:15:36;1.30;;;0.43;;
85726;SDS011;76171;45.484;-73.496;2024-03-06T01:18:03;1.52;;;0.75;;
85726;SDS011;76171;45.484;-73.496;2024-03-06T01:20:31;1.10;;;0.55;;
85726;SDS011;76171;45.484;-73.496;2024-03-06T01:23:02;0.90;;;0.50;;
85726;SDS011;76171;45.484;-73.496;2024-03-06T01:25:28;1.83;;;0.80;;
85726;SDS011;76171;45.484;-73.496;2024-03-06T01:27:54;1.52;;;0.60;;
85726;SDS011;76171;45.484;-73.496;2024-03-06T01:30:20;1.30;;;0.80;;
85726;SDS011;76171;45.484;-73.496;2024-03-06T01:32:46;1.13;;;0.60;;
85726;SDS011;76171;45.484;-73.496;2024-03-06T01:35:12;1.70;;;1.00;;
85726;SDS011;76171;45.484;-73.496;2024-03-06T01:37:41;1.15;;;0.70;;
85726;SDS011;76171;45.484;-73.496;2024-03-06T01:40:07;1.15;;;0.60;;
85726;SDS011;76171;45.484;-73.496;2024-03-06T01:42:34;0.98;;;0.60;;
85726;SDS011;76171;45.484;-73.496;2024-03-06T01:45:02;2.10;;;0.52;;
85726;SDS011;76171;45.484;-73.496;2024-03-06T01:47:32;0.90;;;0.70;;
85726;SDS011;76171;45.484;-73.496;2024-03-06T01:49:59;1.33;;;0.70;;
85726;SDS011;76171;45.484;-73.496;2024-03-06T01:52:25;1.50;;;0.70;;
85726;SDS011;76171;45.484;-73.496;2024-03-06T01:54:55;1.35;;;0.60;;
85726;SDS011;76171;45.484;-73.496;2024-03-06T01:57:24;3.50;;;1.23;;
85726;SDS011;76171;45.484;-73.496;2024-03-06T01:59:50;1.75;;;0.70;;
85726;SDS011;76171;45.484;-73.496;2024-03-06T02:02:16;1.33;;;0.60;;
85726;SDS011;76171;45.484;-73.496;2024-03-06T02:04:42;1.25;;;0.65;;
85726;SDS011;76171;45.484;-73.496;2024-03-06T02:07:08;1.13;;;0.47;;
85726;SDS011;76171;45.484;-73.496;2024-03-06T02:09:38;1.30;;;0.57;;
85726;SDS011;76171;45.484;-73.496;2024-03-06T02:12:04;1.00;;;0.70;;
85726;SDS011;76171;45.484;-73.496;2024-03-06T02:14:34;1.50;;;0.60;;
85726;SDS011;76171;45.484;-73.496;2024-03-06T02:17:02;2.17;;;0.70;;
85726;SDS011;76171;45.484;-73.496;2024-03-06T02:19:43;1.05;;;0.57;;
85726;SDS011;76171;45.484;-73.496;2024-03-06T02:22:10;1.10;;;0.50;;
85726;SDS011;76171;45.484;-73.496;2024-03-06T02:24:37;0.95;;;0.60;;
85726;SDS011;76171;45.484;-73.496;2024-03-06T02:27:03;2.88;;;0.80;;
85726;SDS011;76171;45.484;-73.496;2024-03-06T02:29:32;2.72;;;0.70;;
85726;SDS011;76171;45.484;-73.496;2024-03-06T02:32:00;1.55;;;0.98;;
85726;SDS011;76171;45.484;-73.496;2024-03-06T02:34:32;0.90;;;0.50;;
85726;SDS011;76171;45.484;-73.496;2024-03-06T02:37:00;1.27;;;0.70;;
85726;SDS011;76171;45.484;-73.496;2024-03-06T02:39:26;1.02;;;0.60;;
85726;SDS011;76171;45.484;-73.496;2024-03-06T02:41:57;0.70;;;0.52;;
85726;SDS011;76171;45.484;-73.496;2024-03-06T02:44:22;1.30;;;0.70;;
85726;SDS011;76171;45.484;-73.496;2024-03-06T02:46:51;1.38;;;0.50;;
85726;SDS011;76171;45.484;-73.496;2024-03-06T02:49:19;0.77;;;0.50;;
85726;SDS011;76171;45.484;-73.496;2024-03-06T02:51:45;1.08;;;0.55;;
85726;SDS011;76171;45.484;-73.496;2024-03-06T02:54:11;2.67;;;0.90;;
85726;SDS011;76171;45.484;-73.496;2024-03-06T02:59:10;1.65;;;0.50;;
85726;SDS011;76171;45.484;-73.496;2024-03-06T03:01:38;0.68;;;0.40;;
85726;SDS011;76171;45.484;-73.496;2024-03-06T03:04:04;1.13;;;0.60;;
85726;SDS011;76171;45.484;-73.496;2024-03-06T03:06:32;1.15;;;0.63;;
85726;SDS011;76171;45.484;-73.496;2024-03-06T03:08:58;0.93;;;0.60;;
85726;SDS011;76171;45.484;-73.496;2024-03-06T03:11:31;0.70;;;0.57;;
85726;SDS011;76171;45.484;-73.496;2024-03-06T03:14:01;2.13;;;0.57;;
85726;SDS011;76171;45.484;-73.496;2024-03-06T03:16:27;1.60;;;0.70;;
85726;SDS011;76171;45.484;-73.496;2024-03-06T03:18:52;1.38;;;0.50;;
85726;SDS011;76171;45.484;-73.496;2024-03-06T03:21:21;1.98;;;0.70;;
85726;SDS011;76171;45.484;-73.496;2024-03-06T03:23:50;1.65;;;0.90;;
85726;SDS011;76171;45.484;-73.496;2024-03-06T03:26:16;1.67;;;0.90;;
85726;SDS011;76171;45.484;-73.496;2024-03-06T03:28:42;1.40;;;0.60;;
85726;SDS011;76171;45.484;-73.496;2024-03-06T03:31:10;0.88;;;0.50;;
85726;SDS011;76171;45.484;-73.496;2024-03-06T03:33:40;0.90;;;0.50;;
85726;SDS011;76171;45.484;-73.496;2024-03-06T03:36:07;1.08;;;0.70;;
85726;SDS011;76171;45.484;-73.496;2024-03-06T03:38:34;0.90;;;0.60;;
85726;SDS011;76171;45.484;-73.496;2024-03-06T03:41:09;1.10;;;0.80;;
85726;SDS011;76171;45.484;-73.496;2024-03-06T03:43:38;1.38;;;0.77;;
85726;SDS011;76171;45.484;-73.496;2024-03-06T03:46:04;1.50;;;0.80;;
85726;SDS011;76171;45.484;-73.496;2024-03-06T03:48:34;1.02;;;0.50;;
85726;SDS011;76171;45.484;-73.496;2024-03-06T03:51:03;1.05;;;0.75;;
85726;SDS011;76171;45.484;-73.496;2024-03-06T03:53:34;1.23;;;0.77;;
85726;SDS011;76171;45.484;-73.496;2024-03-06T03:56:00;1.23;;;0.70;;
85726;SDS011;76171;45.484;-73.496;2024-03-06T03:58:27;0.90;;;0.68;;
85726;SDS011;76171;45.484;-73.496;2024-03-06T04:00:53;1.60;;;0.80;;
85726;SDS011;76171;45.484;-73.496;2024-03-06T04:03:20;0.90;;;0.63;;
85726;SDS011;76171;45.484;-73.496;2024-03-06T04:05:49;1.73;;;0.77;;
85726;SDS011;76171;45.484;-73.496;2024-03-06T04:08:15;1.23;;;0.50;;
85726;SDS011;76171;45.484;-73.496;2024-03-06T04:10:42;1.20;;;0.63;;
85726;SDS011;76171;45.484;-73.496;2024-03-06T04:13:11;1.67;;;0.70;;
85726;SDS011;76171;45.484;-73.496;2024-03-06T04:15:38;1.40;;;0.80;;
85726;SDS011;76171;45.484;-73.496;2024-03-06T04:18:04;1.48;;;0.88;;
85726;SDS011;76171;45.484;-73.496;2024-03-06T04:20:33;1.25;;;0.70;;
85726;SDS011;76171;45.484;-73.496;2024-03-06T04:22:59;1.30;;;0.63;;
85726;SDS011;76171;45.484;-73.496;2024-03-06T04:25:25;1.20;;;0.90;;
85726;SDS011;76171;45.484;-73.496;2024-03-06T04:27:51;1.45;;;0.70;;
85726;SDS011;76171;45.484;-73.496;2024-03-06T04:30:17;1.48;;;0.90;;
85726;SDS011;76171;45.484;-73.496;2024-03-06T04:32:42;2.38;;;0.80;;
85726;SDS011;76171;45.484;-73.496;2024-03-06T04:35:11;2.08;;;0.70;;
85726;SDS011;76171;45.484;-73.496;2024-03-06T04:37:37;1.23;;;0.70;;
85726;SDS011;76171;45.484;-73.496;2024-03-06T04:40:03;1.08;;;0.70;;
85726;SDS011;76171;45.484;-73.496;2024-03-06T04:42:36;1.77;;;0.60;;
85726;SDS011;76171;45.484;-73.496;2024-03-06T04:45:11;1.92;;;0.77;;
85726;SDS011;76171;45.484;-73.496;2024-03-06T04:47:42;1.92;;;0.73;;
85726;SDS011;76171;45.484;-73.496;2024-03-06T04:50:12;1.42;;;0.70;;
85726;SDS011;76171;45.484;-73.496;2024-03-06T04:52:39;1.85;;;0.70;;
85726;SDS011;76171;45.484;-73.496;2024-03-06T04:55:06;1.52;;;0.80;;
85726;SDS011;76171;45.484;-73.496;2024-03-06T04:57:39;1.13;;;0.65;;
85726;SDS011;76171;45.484;-73.496;2024-03-06T05:00:10;1.90;;;1.00;;
85726;SDS011;76171;45.484;-73.496;2024-03-06T05:02:36;1.20;;;0.75;;
85726;SDS011;76171;45.484;-73.496;2024-03-06T05:05:03;1.58;;;0.90;;
85726;SDS011;76171;45.484;-73.496;2024-03-06T05:07:29;1.10;;;0.60;;
85726;SDS011;76171;45.484;-73.496;2024-03-06T05:09:56;2.28;;;0.90;;
85726;SDS011;76171;45.484;-73.496;2024-03-06T05:12:24;1.63;;;0.88;;
85726;SDS011;76171;45.484;-73.496;2024-03-06T05:14:50;2.05;;;1.17;;
85726;SDS011;76171;45.484;-73.496;2024-03-06T05:17:17;2.22;;;1.05;;
85726;SDS011;76171;45.484;-73.496;2024-03-06T05:19:44;2.20;;;1.10;;
85726;SDS011;76171;45.484;-73.496;2024-03-06T05:22:13;2.55;;;1.20;;
85726;SDS011;76171;45.484;-73.496;2024-03-06T05:24:44;2.33;;;1.27;;
85726;SDS011;76171;45.484;-73.496;2024-03-06T05:27:10;2.85;;;1.50;;
85726;SDS011;76171;45.484;-73.496;2024-03-06T05:29:41;2.25;;;1.00;;
85726;SDS011;76171;45.484;-73.496;2024-03-06T05:32:07;1.80;;;1.00;;
85726;SDS011;76171;45.484;-73.496;2024-03-06T05:34:35;2.67;;;0.90;;
85726;SDS011;76171;45.484;-73.496;2024-03-06T05:37:07;2.92;;;1.27;;
85726;SDS011;76171;45.484;-73.496;2024-03-06T05:39:36;2.67;;;1.20;;
85726;SDS011;76171;45.484;-73.496;2024-03-06T05:42:07;2.13;;;1.20;;
85726;SDS011;76171;45.484;-73.496;2024-03-06T05:44:34;2.40;;;1.10;;
85726;SDS011;76171;45.484;-73.496;2024-03-06T05:47:00;5.05;;;1.58;;
85726;SDS011;76171;45.484;-73.496;2024-03-06T05:49:28;3.55;;;1.20;;
85726;SDS011;76171;45.484;-73.496;2024-03-06T05:51:54;3.83;;;1.70;;
85726;SDS011;76171;45.484;-73.496;2024-03-06T05:54:21;2.35;;;1.20;;
85726;SDS011;76171;45.484;-73.496;2024-03-06T05:56:50;4.13;;;1.27;;
85726;SDS011;76171;45.484;-73.496;2024-03-06T05:59:26;3.97;;;1.40;;
85726;SDS011;76171;45.484;-73.496;2024-03-06T06:01:55;3.10;;;1.45;;
85726;SDS011;76171;45.484;-73.496;2024-03-06T06:04:24;2.75;;;1.40;;
85726;SDS011;76171;45.484;-73.496;2024-03-06T06:06:50;3.47;;;1.27;;
85726;SDS011;76171;45.484;-73.496;2024-03-06T06:09:17;2.58;;;1.40;;
85726;SDS011;76171;45.484;-73.496;2024-03-06T06:11:44;2.63;;;1.45;;
85726;SDS011;76171;45.484;-73.496;2024-03-06T06:14:14;3.42;;;1.48;;
85726;SDS011;76171;45.484;-73.496;2024-03-06T06:16:43;2.95;;;1.67;;
85726;SDS011;76171;45.484;-73.496;2024-03-06T06:19:14;4.35;;;1.27;;
85726;SDS011;76171;45.484;-73.496;2024-03-06T06:21:45;3.42;;;1.40;;
85726;SDS011;76171;45.484;-73.496;2024-03-06T06:24:14;2.65;;;1.70;;
85726;SDS011;76171;45.484;-73.496;2024-03-06T06:26:43;3.22;;;1.80;;
85726;SDS011;76171;45.484;-73.496;2024-03-06T06:29:09;3.10;;;1.40;;
85726;SDS011;76171;45.484;-73.496;2024-03-06T06:31:38;3.03;;;1.55;;
85726;SDS011;76171;45.484;-73.496;2024-03-06T06:34:04;2.83;;;1.48;;
85726;SDS011;76171;45.484;-73.496;2024-03-06T06:36:30;3.28;;;1.88;;
85726;SDS011;76171;45.484;-73.496;2024-03-06T06:38:56;4.63;;;1.83;;
85726;SDS011;76171;45.484;-73.496;2024-03-06T06:41:22;2.25;;;1.48;;
85726;SDS011;76171;45.484;-73.496;2024-03-06T06:43:49;4.07;;;1.70;;
85726;SDS011;76171;45.484;-73.496;2024-03-06T06:46:18;3.38;;;1.38;;
85726;SDS011;76171;45.484;-73.496;2024-03-06T06:48:44;2.85;;;1.38;;
85726;SDS011;76171;45.484;-73.496;2024-03-06T06:51:10;2.78;;;1.60;;
85726;SDS011;76171;45.484;-73.496;2024-03-06T06:53:41;2.70;;;1.48;;
85726;SDS011;76171;45.484;-73.496;2024-03-06T06:56:07;2.72;;;1.40;;
85726;SDS011;76171;45.484;-73.496;2024-03-06T06:58:36;2.70;;;1.77;;
85726;SDS011;76171;45.484;-73.496;2024-03-06T07:01:02;2.53;;;1.40;;
85726;SDS011;76171;45.484;-73.496;2024-03-06T07:03:29;2.65;;;1.20;;
85726;SDS011;76171;45.484;-73.496;2024-03-06T07:05:56;2.65;;;1.23;;
85726;SDS011;76171;45.484;-73.496;2024-03-06T07:08:22;2.65;;;1.52;;
85726;SDS011;76171;45.484;-73.496;2024-03-06T07:10:51;3.75;;;1.50;;
85726;SDS011;76171;45.484;-73.496;2024-03-06T07:13:20;4.32;;;1.77;;
85726;SDS011;76171;45.484;-73.496;2024-03-06T07:15:46;2.22;;;1.30;;
85726;SDS011;76171;45.484;-73.496;2024-03-06T07:18:17;2.40;;;1.30;;
85726;SDS011;76171;45.484;-73.496;2024-03-06T07:20:44;2.10;;;1.20;;
85726;SDS011;76171;45.484;-73.496;2024-03-06T07:23:12;3.13;;;1.30;;
85726;SDS011;76171;45.484;-73.496;2024-03-06T07:25:38;2.33;;;1.60;;
85726;SDS011;76171;45.484;-73.496;2024-03-06T07:28:08;3.15;;;1.58;;
85726;SDS011;76171;45.484;-73.496;2024-03-06T07:33:08;3.40;;;1.75;;
85726;SDS011;76171;45.484;-73.496;2024-03-06T07:35:34;2.50;;;1.50;;
85726;SDS011;76171;45.484;-73.496;2024-03-06T07:38:03;2.78;;;1.60;;
85726;SDS011;76171;45.484;-73.496;2024-03-06T07:40:33;2.92;;;1.60;;
85726;SDS011;76171;45.484;-73.496;2024-03-06T07:42:59;2.92;;;1.65;;
85726;SDS011;76171;45.484;-73.496;2024-03-06T07:45:25;3.85;;;2.10;;
85726;SDS011;76171;45.484;-73.496;2024-03-06T07:47:55;4.47;;;1.75;;
85726;SDS011;76171;45.484;-73.496;2024-03-06T07:50:24;2.85;;;1.73;;
85726;SDS011;76171;45.484;-73.496;2024-03-06T07:52:52;5.45;;;1.55;;
85726;SDS011;76171;45.484;-73.496;2024-03-06T07:55:20;3.22;;;1.20;;
85726;SDS011;76171;45.484;-73.496;2024-03-06T07:57:47;3.35;;;1.40;;
85726;SDS011;76171;45.484;-73.496;2024-03-06T08:00:13;1.95;;;1.10;;
85726;SDS011;76171;45.484;-73.496;2024-03-06T08:02:40;2.88;;;1.60;;
85726;SDS011;76171;45.484;-73.496;2024-03-06T08:05:11;4.00;;;1.38;;
85726;SDS011;76171;45.484;-73.496;2024-03-06T08:07:40;2.13;;;1.48;;
85726;SDS011;76171;45.484;-73.496;2024-03-06T08:10:13;2.85;;;1.40;;
85726;SDS011;76171;45.484;-73.496;2024-03-06T08:12:44;2.33;;;1.25;;
85726;SDS011;76171;45.484;-73.496;2024-03-06T08:15:14;2.78;;;1.23;;
85726;SDS011;76171;45.484;-73.496;2024-03-06T08:20:15;1.98;;;1.17;;
85726;SDS011;76171;45.484;-73.496;2024-03-06T08:22:44;2.67;;;1.33;;
85726;SDS011;76171;45.484;-73.496;2024-03-06T08:25:17;2.22;;;1.20;;
85726;SDS011;76171;45.484;-73.496;2024-03-06T08:27:45;3.40;;;1.33;;
85726;SDS011;76171;45.484;-73.496;2024-03-06T08:30:12;2.17;;;1.35;;
85726;SDS011;76171;45.484;-73.496;2024-03-06T08:32:38;2.20;;;1.20;;
85726;SDS011;76171;45.484;-73.496;2024-03-06T08:37:40;4.10;;;1.20;;
85726;SDS011;76171;45.484;-73.496;2024-03-06T08:40:06;2.28;;;1.17;;
85726;SDS011;76171;45.484;-73.496;2024-03-06T08:42:35;2.33;;;1.17;;
85726;SDS011;76171;45.484;-73.496;2024-03-06T08:45:01;2.10;;;1.25;;
85726;SDS011;76171;45.484;-73.496;2024-03-06T08:47:31;2.33;;;1.40;;
85726;SDS011;76171;45.484;-73.496;2024-03-06T08:49:57;3.50;;;1.60;;
85726;SDS011;76171;45.484;-73.496;2024-03-06T08:52:28;4.03;;;1.85;;
85726;SDS011;76171;45.484;-73.496;2024-03-06T08:55:06;3.78;;;2.17;;
85726;SDS011;76171;45.484;-73.496;2024-03-06T08:57:38;3.70;;;2.60;;
85726;SDS011;76171;45.484;-73.496;2024-03-06T09:00:08;4.72;;;2.72;;
85726;SDS011;76171;45.484;-73.496;2024-03-06T09:02:36;4.70;;;2.50;;
85726;SDS011;76171;45.484;-73.496;2024-03-06T09:05:07;4.68;;;3.08;;
85726;SDS011;76171;45.484;-73.496;2024-03-06T09:07:40;5.78;;;3.60;;
85726;SDS011;76171;45.484;-73.496;2024-03-06T09:10:12;8.13;;;4.07;;
85726;SDS011;76171;45.484;-73.496;2024-03-06T09:12:39;8.05;;;3.58;;
85726;SDS011;76171;45.484;-73.496;2024-03-06T09:15:05;8.63;;;5.07;;
85726;SDS011;76171;45.484;-73.496;2024-03-06T09:17:32;10.35;;;4.57;;
85726;SDS011;76171;45.484;-73.496;2024-03-06T09:19:58;10.80;;;4.90;;
85726;SDS011;76171;45.484;-73.496;2024-03-06T09:22:29;8.43;;;4.80;;
85726;SDS011;76171;45.484;-73.496;2024-03-06T09:24:55;10.77;;;5.85;;
85726;SDS011;76171;45.484;-73.496;2024-03-06T09:27:21;11.88;;;5.95;;
85726;SDS011;76171;45.484;-73.496;2024-03-06T09:29:48;14.65;;;6.50;;
85726;SDS011;76171;45.484;-73.496;2024-03-06T09:32:14;11.90;;;6.15;;
85726;SDS011;76171;45.484;-73.496;2024-03-06T09:34:42;9.00;;;5.45;;
85726;SDS011;76171;45.484;-73.496;2024-03-06T09:37:10;8.63;;;5.00;;
85726;SDS011;76171;45.484;-73.496;2024-03-06T09:39:42;9.55;;;5.80;;
85726;SDS011;76171;45.484;-73.496;2024-03-06T09:42:13;9.63;;;5.13;;
85726;SDS011;76171;45.484;-73.496;2024-03-06T09:44:40;9.98;;;4.95;;
85726;SDS011;76171;45.484;-73.496;2024-03-06T09:47:06;11.88;;;5.35;;
85726;SDS011;76171;45.484;-73.496;2024-03-06T09:49:32;9.35;;;4.60;;
85726;SDS011;76171;45.484;-73.496;2024-03-06T09:52:00;10.32;;;5.95;;
85726;SDS011;76171;45.484;-73.496;2024-03-06T09:54:29;12.68;;;4.78;;
85726;SDS011;76171;45.484;-73.496;2024-03-06T09:56:55;7.50;;;5.00;;
85726;SDS011;76171;45.484;-73.496;2024-03-06T10:04:32;8.93;;;5.15;;
85726;SDS011;76171;45.484;-73.496;2024-03-06T10:07:01;10.25;;;5.07;;
85726;SDS011;76171;45.484;-73.496;2024-03-06T10:09:27;12.07;;;5.45;;
85726;SDS011;76171;45.484;-73.496;2024-03-06T10:12:00;11.70;;;5.55;;
85726;SDS011;76171;45.484;-73.496;2024-03-06T10:14:28;9.07;;;4.65;;
85726;SDS011;76171;45.484;-73.496;2024-03-06T10:19:26;7.28;;;4.57;;
85726;SDS011;76171;45.484;-73.496;2024-03-06T10:21:53;9.82;;;5.65;;
85726;SDS011;76171;45.484;-73.496;2024-03-06T10:26:59;9.05;;;4.70;;
85726;SDS011;76171;45.484;-73.496;2024-03-06T10:29:30;9.88;;;4.30;;
85726;SDS011;76171;45.484;-73.496;2024-03-06T10:32:00;10.05;;;4.85;;
85726;SDS011;76171;45.484;-73.496;2024-03-06T10:34:29;9.20;;;4.57;;
85726;SDS011;76171;45.484;-73.496;2024-03-06T10:39:25;7.20;;;2.72;;
85726;SDS011;76171;45.484;-73.496;2024-03-06T10:41:52;5.53;;;2.92;;
85726;SDS011;76171;45.484;-73.496;2024-03-06T10:44:23;4.30;;;2.10;;
85726;SDS011;76171;45.484;-73.496;2024-03-06T10:49:25;5.05;;;2.33;;
85726;SDS011;76171;45.484;-73.496;2024-03-06T10:52:01;3.55;;;2.35;;
85726;SDS011;76171;45.484;-73.496;2024-03-06T10:54:35;4.72;;;2.38;;
85726;SDS011;76171;45.484;-73.496;2024-03-06T10:57:04;4.72;;;2.08;;
85726;SDS011;76171;45.484;-73.496;2024-03-06T10:59:30;5.78;;;2.53;;
85726;SDS011;76171;45.484;-73.496;2024-03-06T11:01:59;3.92;;;1.92;;
85726;SDS011;76171;45.484;-73.496;2024-03-06T11:07:05;5.53;;;2.08;;
85726;SDS011;76171;45.484;-73.496;2024-03-06T11:09:32;3.33;;;2.00;;
85726;SDS011;76171;45.484;-73.496;2024-03-06T11:14:27;3.90;;;2.05;;
85726;SDS011;76171;45.484;-73.496;2024-03-06T11:16:56;4.88;;;2.22;;
85726;SDS011;76171;45.484;-73.496;2024-03-06T11:20:07;4.32;;;2.40;;
85726;SDS011;76171;45.484;-73.496;2024-03-06T11:33:41;4.40;;;1.70;;
85726;SDS011;76171;45.484;-73.496;2024-03-06T11:36:17;2.97;;;1.80;;
85726;SDS011;76171;45.484;-73.496;2024-03-06T11:44:19;2.63;;;1.35;;
85726;SDS011;76171;45.484;-73.496;2024-03-06T11:51:51;2.60;;;1.23;;
85726;SDS011;76171;45.484;-73.496;2024-03-06T11:54:18;1.60;;;0.98;;
85726;SDS011;76171;45.484;-73.496;2024-03-06T11:56:48;3.30;;;1.10;;
85726;SDS011;76171;45.484;-73.496;2024-03-06T11:59:24;2.15;;;1.17;;
85726;SDS011;76171;45.484;-73.496;2024-03-06T12:02:01;2.38;;;1.20;;
85726;SDS011;76171;45.484;-73.496;2024-03-06T12:04:32;2.97;;;1.13;;
85726;SDS011;76171;45.484;-73.496;2024-03-06T12:07:01;2.10;;;0.93;;
85726;SDS011;76171;45.484;-73.496;2024-03-06T12:09:38;2.47;;;1.20;;
85726;SDS011;76171;45.484;-73.496;2024-03-06T12:12:07;2.78;;;1.23;;
85726;SDS011;76171;45.484;-73.496;2024-03-06T12:14:42;2.55;;;1.10;;
85726;SDS011;76171;45.484;-73.496;2024-03-06T12:17:13;3.25;;;1.10;;
85726;SDS011;76171;45.484;-73.496;2024-03-06T12:19:43;3.05;;;1.13;;
85726;SDS011;76171;45.484;-73.496;2024-03-06T12:22:10;2.53;;;1.17;;
85726;SDS011;76171;45.484;-73.496;2024-03-06T12:24:40;3.35;;;1.17;;
85726;SDS011;76171;45.484;-73.496;2024-03-06T12:27:09;3.38;;;1.42;;
85726;SDS011;76171;45.484;-73.496;2024-03-06T12:29:40;3.88;;;1.23;;
85726;SDS011;76171;45.484;-73.496;2024-03-06T12:32:17;6.82;;;1.20;;
85726;SDS011;76171;45.484;-73.496;2024-03-06T12:34:55;2.83;;;1.30;;
85726;SDS011;76171;45.484;-73.496;2024-03-06T12:37:36;1.95;;;1.15;;
85726;SDS011;76171;45.484;-73.496;2024-03-06T12:40:05;3.78;;;1.30;;
85726;SDS011;76171;45.484;-73.496;2024-03-06T12:42:39;2.53;;;1.10;;
85726;SDS011;76171;45.484;-73.496;2024-03-06T12:45:06;2.53;;;1.35;;
85726;SDS011;76171;45.484;-73.496;2024-03-06T12:47:33;2.13;;;0.85;;
85726;SDS011;76171;45.484;-73.496;2024-03-06T12:49:59;2.38;;;0.90;;
85726;SDS011;76171;45.484;-73.496;2024-03-06T12:52:28;2.20;;;0.80;;
85726;SDS011;76171;45.484;-73.496;2024-03-06T12:54:57;2.75;;;1.20;;
85726;SDS011;76171;45.484;-73.496;2024-03-06T12:57:23;2.00;;;0.75;;
85726;SDS011;76171;45.484;-73.496;2024-03-06T12:59:49;1.85;;;0.90;;
85726;SDS011;76171;45.484;-73.496;2024-03-06T13:04:43;1.52;;;0.80;;
85726;SDS011;76171;45.484;-73.496;2024-03-06T13:07:10;2.95;;;1.02;;
85726;SDS011;76171;45.484;-73.496;2024-03-06T13:09:36;1.67;;;0.60;;
85726;SDS011;76171;45.484;-73.496;2024-03-06T13:12:03;1.45;;;0.75;;
85726;SDS011;76171;45.484;-73.496;2024-03-06T13:14:32;1.50;;;0.70;;
85726;SDS011;76171;45.484;-73.496;2024-03-06T13:16:58;2.05;;;0.80;;
85726;SDS011;76171;45.484;-73.496;2024-03-06T13:19:30;1.38;;;0.70;;
85726;SDS011;76171;45.484;-73.496;2024-03-06T13:21:59;1.52;;;0.80;;
85726;SDS011;76171;45.484;-73.496;2024-03-06T13:26:53;1.02;;;0.77;;
85726;SDS011;76171;45.484;-73.496;2024-03-06T13:29:19;1.48;;;0.63;;
85726;SDS011;76171;45.484;-73.496;2024-03-06T13:31:45;1.42;;;0.95;;
85726;SDS011;76171;45.484;-73.496;2024-03-06T13:34:13;1.52;;;0.80;;
85726;SDS011;76171;45.484;-73.496;2024-03-06T13:36:40;1.42;;;0.90;;
85726;SDS011;76171;45.484;-73.496;2024-03-06T13:39:09;1.40;;;0.60;;
85726;SDS011;76171;45.484;-73.496;2024-03-06T13:41:35;1.75;;;0.90;;
85726;SDS011;76171;45.484;-73.496;2024-03-06T13:44:05;1.42;;;0.70;;
85726;SDS011;76171;45.484;-73.496;2024-03-06T13:46:33;1.05;;;0.65;;
85726;SDS011;76171;45.484;-73.496;2024-03-06T13:49:00;0.88;;;0.60;;
85726;SDS011;76171;45.484;-73.496;2024-03-06T13:51:27;4.28;;;0.80;;
85726;SDS011;76171;45.484;-73.496;2024-03-06T13:53:53;1.25;;;0.70;;
85726;SDS011;76171;45.484;-73.496;2024-03-06T13:56:20;1.50;;;0.60;;
85726;SDS011;76171;45.484;-73.496;2024-03-06T13:58:46;1.10;;;0.70;;
85726;SDS011;76171;45.484;-73.496;2024-03-06T14:01:12;1.27;;;0.82;;
85726;SDS011;76171;45.484;-73.496;2024-03-06T14:03:38;0.93;;;0.63;;
85726;SDS011;76171;45.484;-73.496;2024-03-06T14:06:05;0.95;;;0.63;;
85726;SDS011;76171;45.484;-73.496;2024-03-06T14:08:33;1.48;;;0.95;;
85726;SDS011;76171;45.484;-73.496;2024-03-06T14:11:04;1.48;;;1.00;;
85726;SDS011;76171;45.484;-73.496;2024-03-06T14:13:32;1.92;;;0.80;;
85726;SDS011;76171;45.484;-73.496;2024-03-06T14:15:58;1.75;;;0.80;;
85726;SDS011;76171;45.484;-73.496;2024-03-06T14:18:27;2.10;;;1.20;;
85726;SDS011;76171;45.484;-73.496;2024-03-06T14:20:53;2.95;;;0.95;;
85726;SDS011;76171;45.484;-73.496;2024-03-06T14:23:30;1.52;;;1.00;;
85726;SDS011;76171;45.484;-73.496;2024-03-06T14:26:02;1.83;;;0.80;;
85726;SDS011;76171;45.484;-73.496;2024-03-06T14:28:28;2.30;;;0.85;;
85726;SDS011;76171;45.484;-73.496;2024-03-06T14:30:54;2.30;;;0.95;;
85726;SDS011;76171;45.484;-73.496;2024-03-06T14:35:51;1.00;;;0.75;;
85726;SDS011;76171;45.484;-73.496;2024-03-06T14:38:17;2.20;;;1.27;;
85726;SDS011;76171;45.484;-73.496;2024-03-06T14:40:43;1.65;;;0.90;;
85726;SDS011;76171;45.484;-73.496;2024-03-06T14:43:13;3.30;;;0.90;;
85726;SDS011;76171;45.484;-73.496;2024-03-06T14:45:39;1.83;;;0.95;;
85726;SDS011;76171;45.484;-73.496;2024-03-06T14:48:08;2.50;;;0.82;;
85726;SDS011;76171;45.484;-73.496;2024-03-06T14:50:34;1.83;;;0.90;;
85726;SDS011;76171;45.484;-73.496;2024-03-06T14:53:00;1.90;;;0.98;;
85726;SDS011;76171;45.484;-73.496;2024-03-06T14:55:26;2.13;;;1.35;;
85726;SDS011;76171;45.484;-73.496;2024-03-06T15:00:24;2.33;;;0.95;;
85726;SDS011;76171;45.484;-73.496;2024-03-06T15:02:51;1.77;;;1.20;;
85726;SDS011;76171;45.484;-73.496;2024-03-06T15:05:17;1.88;;;0.90;;
85726;SDS011;76171;45.484;-73.496;2024-03-06T15:07:43;1.73;;;1.00;;
85726;SDS011;76171;45.484;-73.496;2024-03-06T15:10:09;2.90;;;1.13;;
85726;SDS011;76171;45.484;-73.496;2024-03-06T15:12:37;4.22;;;1.40;;
85726;SDS011;76171;45.484;-73.496;2024-03-06T15:15:06;2.15;;;1.23;;
85726;SDS011;76171;45.484;-73.496;2024-03-06T15:17:35;8.57;;;1.15;;
85726;SDS011;76171;45.484;-73.496;2024-03-06T15:20:04;1.90;;;0.98;;
85726;SDS011;76171;45.484;-73.496;2024-03-06T15:22:34;3.92;;;1.27;;
85726;SDS011;76171;45.484;-73.496;2024-03-06T15:25:07;3.45;;;1.20;;
85726;SDS011;76171;45.484;-73.496;2024-03-06T15:27:37;4.40;;;1.38;;
85726;SDS011;76171;45.484;-73.496;2024-03-06T15:30:06;2.08;;;1.15;;